sensor_id;sensor_type;location;lat;lon;timestamp;P1;durP1;ratioP1;P2;durP2;ratioP2
34499;SDS011;20745;50.882;6.962;2023-03-24T00:00:00;5.18;;;1.73;;
34499;SDS011;20745;50.882;6.962;2023-03-24T00:05:03;5.60;;;1.50;;
34499;SDS011;20745;50.882;6.962;2023-03-24T00:07:30;5.70;;;1.80;;
34499;SDS011;20745;50.882;6.962;2023-03-24T00:09:59;5.30;;;1.70;;
34499;SDS011;20745;50.882;6.962;2023-03-24T00:12:26;4.93;;;1.40;;
34499;SDS011;20745;50.882;6.962;2023-03-24T00:14:52;5.53;;;1.50;;
34499;SDS011;20745;50.882;6.962;2023-03-24T00:17:19;5.18;;;1.65;;
34499;SDS011;20745;50.882;6.962;2023-03-24T00:19:50;6.85;;;2.22;;
34499;SDS011;20745;50.882;6.962;2023-03-24T00:22:17;8.68;;;1.88;;
34499;SDS011;20745;50.882;6.962;2023-03-24T00:24:46;6.35;;;1.90;;
34499;SDS011;20745;50.882;6.962;2023-03-24T00:27:13;8.73;;;2.72;;
34499;SDS011;20745;50.882;6.962;2023-03-24T00:29:40;9.98;;;2.40;;
34499;SDS011;20745;50.882;6.962;2023-03-24T00:32:07;8.48;;;2.28;;
34499;SDS011;20745;50.882;6.962;2023-03-24T00:34:33;10.00;;;2.58;;
34499;SDS011;20745;50.882;6.962;2023-03-24T00:37:03;8.73;;;2.70;;
34499;SDS011;20745;50.882;6.962;2023-03-24T00:39:31;9.85;;;2.55;;
34499;SDS011;20745;50.882;6.962;2023-03-24T00:41:58;7.00;;;2.25;;
34499;SDS011;20745;50.882;6.962;2023-03-24T00:44:26;7.78;;;2.20;;
34499;SDS011;20745;50.882;6.962;2023-03-24T00:46:53;7.57;;;2.40;;
34499;SDS011;20745;50.882;6.962;2023-03-24T00:49:27;7.20;;;2.30;;
34499;SDS011;20745;50.882;6.962;2023-03-24T00:52:17;8.25;;;2.38;;
34499;SDS011;20745;50.882;6.962;2023-03-24T00:54:50;6.72;;;2.33;;
34499;SDS011;20745;50.882;6.962;2023-03-24T00:57:20;7.00;;;2.30;;
34499;SDS011;20745;50.882;6.962;2023-03-24T00:59:47;6.35;;;1.83;;
34499;SDS011;20745;50.882;6.962;2023-03-24T01:02:18;5.82;;;1.88;;
34499;SDS011;20745;50.882;6.962;2023-03-24T01:04:53;5.35;;;1.75;;
34499;SDS011;20745;50.882;6.962;2023-03-24T01:07:22;6.85;;;1.92;;
34499;SDS011;20745;50.882;6.962;2023-03-24T01:09:50;7.67;;;2.20;;
34499;SDS011;20745;50.882;6.962;2023-03-24T01:12:23;4.90;;;1.80;;
34499;SDS011;20745;50.882;6.962;2023-03-24T01:14:55;10.15;;;2.42;;
34499;SDS011;20745;50.882;6.962;2023-03-24T01:17:23;7.17;;;2.17;;
34499;SDS011;20745;50.882;6.962;2023-03-24T01:19:51;7.45;;;2.42;;
34499;SDS011;20745;50.882;6.962;2023-03-24T01:22:19;8.57;;;2.75;;
34499;SDS011;20745;50.882;6.962;2023-03-24T01:24:46;8.63;;;2.40;;
34499;SDS011;20745;50.882;6.962;2023-03-24T01:27:13;8.18;;;2.22;;
34499;SDS011;20745;50.882;6.962;2023-03-24T01:29:41;7.28;;;2.47;;
34499;SDS011;20745;50.882;6.962;2023-03-24T01:32:07;6.40;;;2.20;;
34499;SDS011;20745;50.882;6.962;2023-03-24T01:34:34;7.90;;;2.30;;
34499;SDS011;20745;50.882;6.962;2023-03-24T01:37:01;7.18;;;2.20;;
34499;SDS011;20745;50.882;6.962;2023-03-24T01:39:27;8.98;;;2.42;;
34499;SDS011;20745;50.882;6.962;2023-03-24T01:41:55;8.15;;;2.65;;
34499;SDS011;20745;50.882;6.962;2023-03-24T01:44:35;6.88;;;2.08;;
34499;SDS011;20745;50.882;6.962;2023-03-24T01:47:06;10.63;;;2.80;;
34499;SDS011;20745;50.882;6.962;2023-03-24T01:49:38;8.13;;;2.53;;
34499;SDS011;20745;50.882;6.962;2023-03-24T01:52:13;8.75;;;2.65;;
34499;SDS011;20745;50.882;6.962;2023-03-24T01:54:46;5.88;;;2.03;;
34499;SDS011;20745;50.882;6.962;2023-03-24T01:57:20;5.18;;;2.00;;
34499;SDS011;20745;50.882;6.962;2023-03-24T01:59:48;9.50;;;2.72;;
34499;SDS011;20745;50.882;6.962;2023-03-24T02:02:18;6.47;;;2.10;;
34499;SDS011;20745;50.882;6.962;2023-03-24T02:04:48;9.00;;;2.60;;
34499;SDS011;20745;50.882;6.962;2023-03-24T02:07:24;6.22;;;2.20;;
34499;SDS011;20745;50.882;6.962;2023-03-24T02:09:53;5.70;;;2.03;;
34499;SDS011;20745;50.882;6.962;2023-03-24T02:12:19;6.55;;;2.30;;
34499;SDS011;20745;50.882;6.962;2023-03-24T02:14:46;8.70;;;2.30;;
34499;SDS011;20745;50.882;6.962;2023-03-24T02:31:20;7.60;;;2.40;;
34499;SDS011;20745;50.882;6.962;2023-03-24T02:34:16;8.65;;;2.50;;
34499;SDS011;20745;50.882;6.962;2023-03-24T02:37:00;7.38;;;2.35;;
34499;SDS011;20745;50.882;6.962;2023-03-24T02:39:49;8.13;;;2.38;;
34499;SDS011;20745;50.882;6.962;2023-03-24T02:45:33;8.85;;;2.78;;
34499;SDS011;20745;50.882;6.962;2023-03-24T02:48:08;10.07;;;2.90;;
34499;SDS011;20745;50.882;6.962;2023-03-24T02:56:13;10.20;;;2.72;;
34499;SDS011;20745;50.882;6.962;2023-03-24T02:59:01;10.40;;;3.05;;
34499;SDS011;20745;50.882;6.962;2023-03-24T03:06:45;7.28;;;2.28;;
34499;SDS011;20745;50.882;6.962;2023-03-24T03:09:18;7.47;;;2.60;;
34499;SDS011;20745;50.882;6.962;2023-03-24T03:11:47;6.68;;;2.50;;
34499;SDS011;20745;50.882;6.962;2023-03-24T03:16:52;6.57;;;2.70;;
34499;SDS011;20745;50.882;6.962;2023-03-24T03:19:29;8.55;;;3.08;;
34499;SDS011;20745;50.882;6.962;2023-03-24T03:21:59;6.53;;;2.40;;
34499;SDS011;20745;50.882;6.962;2023-03-24T03:24:31;10.07;;;2.85;;
34499;SDS011;20745;50.882;6.962;2023-03-24T03:27:04;9.18;;;2.97;;
34499;SDS011;20745;50.882;6.962;2023-03-24T03:29:35;6.97;;;2.63;;
34499;SDS011;20745;50.882;6.962;2023-03-24T03:32:06;8.70;;;2.90;;
34499;SDS011;20745;50.882;6.962;2023-03-24T03:34:41;8.27;;;2.78;;
34499;SDS011;20745;50.882;6.962;2023-03-24T03:37:22;8.65;;;2.90;;
34499;SDS011;20745;50.882;6.962;2023-03-24T03:42:52;8.15;;;2.47;;
34499;SDS011;20745;50.882;6.962;2023-03-24T03:45:19;8.50;;;2.60;;
34499;SDS011;20745;50.882;6.962;2023-03-24T03:47:46;10.20;;;2.60;;
34499;SDS011;20745;50.882;6.962;2023-03-24T03:50:13;9.13;;;2.85;;
34499;SDS011;20745;50.882;6.962;2023-03-24T03:52:40;8.02;;;2.75;;
34499;SDS011;20745;50.882;6.962;2023-03-24T03:55:07;7.35;;;2.47;;
34499;SDS011;20745;50.882;6.962;2023-03-24T03:57:35;8.30;;;2.90;;
34499;SDS011;20745;50.882;6.962;2023-03-24T04:00:02;8.73;;;2.85;;
34499;SDS011;20745;50.882;6.962;2023-03-24T04:02:41;8.82;;;2.83;;
34499;SDS011;20745;50.882;6.962;2023-03-24T04:08:17;5.53;;;2.22;;
34499;SDS011;20745;50.882;6.962;2023-03-24T04:11:06;7.43;;;2.60;;
34499;SDS011;20745;50.882;6.962;2023-03-24T04:14:02;7.40;;;2.45;;
34499;SDS011;20745;50.882;6.962;2023-03-24T04:16:52;6.20;;;2.20;;
34499;SDS011;20745;50.882;6.962;2023-03-24T04:22:24;7.38;;;2.55;;
34499;SDS011;20745;50.882;6.962;2023-03-24T04:24:58;6.15;;;2.38;;
34499;SDS011;20745;50.882;6.962;2023-03-24T04:27:46;7.88;;;2.80;;
34499;SDS011;20745;50.882;6.962;2023-03-24T04:30:39;10.43;;;2.88;;
34499;SDS011;20745;50.882;6.962;2023-03-24T04:35:48;9.63;;;2.90;;
34499;SDS011;20745;50.882;6.962;2023-03-24T04:38:22;6.43;;;2.13;;
34499;SDS011;20745;50.882;6.962;2023-03-24T04:40:53;5.45;;;2.00;;
34499;SDS011;20745;50.882;6.962;2023-03-24T04:43:22;7.55;;;2.30;;
34499;SDS011;20745;50.882;6.962;2023-03-24T04:45:53;5.50;;;2.13;;
34499;SDS011;20745;50.882;6.962;2023-03-24T04:48:23;7.20;;;2.00;;
34499;SDS011;20745;50.882;6.962;2023-03-24T04:51:01;6.00;;;2.00;;
34499;SDS011;20745;50.882;6.962;2023-03-24T04:53:28;7.50;;;1.90;;
34499;SDS011;20745;50.882;6.962;2023-03-24T04:56:00;5.15;;;1.70;;
34499;SDS011;20745;50.882;6.962;2023-03-24T04:58:32;6.60;;;2.10;;
34499;SDS011;20745;50.882;6.962;2023-03-24T05:00:59;14.40;;;2.67;;
34499;SDS011;20745;50.882;6.962;2023-03-24T05:03:25;6.18;;;2.20;;
34499;SDS011;20745;50.882;6.962;2023-03-24T05:05:52;6.68;;;1.80;;
34499;SDS011;20745;50.882;6.962;2023-03-24T05:08:19;5.47;;;1.33;;
34499;SDS011;20745;50.882;6.962;2023-03-24T05:10:46;5.50;;;1.63;;
34499;SDS011;20745;50.882;6.962;2023-03-24T05:13:13;5.28;;;1.75;;
34499;SDS011;20745;50.882;6.962;2023-03-24T05:15:40;7.63;;;1.80;;
34499;SDS011;20745;50.882;6.962;2023-03-24T05:18:07;7.97;;;1.90;;
34499;SDS011;20745;50.882;6.962;2023-03-24T05:20:34;7.88;;;2.08;;
34499;SDS011;20745;50.882;6.962;2023-03-24T05:23:00;9.57;;;2.13;;
34499;SDS011;20745;50.882;6.962;2023-03-24T05:25:27;12.00;;;2.05;;
34499;SDS011;20745;50.882;6.962;2023-03-24T05:27:54;8.50;;;2.22;;
34499;SDS011;20745;50.882;6.962;2023-03-24T05:30:21;9.68;;;2.05;;
34499;SDS011;20745;50.882;6.962;2023-03-24T05:32:47;9.95;;;2.30;;
34499;SDS011;20745;50.882;6.962;2023-03-24T05:35:14;8.73;;;2.35;;
34499;SDS011;20745;50.882;6.962;2023-03-24T05:37:41;5.22;;;1.88;;
34499;SDS011;20745;50.882;6.962;2023-03-24T05:40:07;9.00;;;2.17;;
34499;SDS011;20745;50.882;6.962;2023-03-24T05:42:34;6.38;;;1.92;;
34499;SDS011;20745;50.882;6.962;2023-03-24T05:45:01;5.65;;;1.70;;
34499;SDS011;20745;50.882;6.962;2023-03-24T05:47:28;6.10;;;1.70;;
34499;SDS011;20745;50.882;6.962;2023-03-24T05:49:55;9.70;;;1.85;;
34499;SDS011;20745;50.882;6.962;2023-03-24T05:52:21;9.90;;;1.85;;
34499;SDS011;20745;50.882;6.962;2023-03-24T05:54:48;6.85;;;1.92;;
34499;SDS011;20745;50.882;6.962;2023-03-24T05:57:17;6.20;;;2.22;;
34499;SDS011;20745;50.882;6.962;2023-03-24T05:59:45;6.13;;;1.50;;
34499;SDS011;20745;50.882;6.962;2023-03-24T06:02:12;7.85;;;1.77;;
34499;SDS011;20745;50.882;6.962;2023-03-24T06:04:39;8.60;;;1.90;;
34499;SDS011;20745;50.882;6.962;2023-03-24T06:07:11;9.75;;;1.90;;
34499;SDS011;20745;50.882;6.962;2023-03-24T06:09:38;6.90;;;1.70;;
34499;SDS011;20745;50.882;6.962;2023-03-24T06:12:07;12.05;;;2.35;;
34499;SDS011;20745;50.882;6.962;2023-03-24T06:14:35;5.75;;;1.58;;
34499;SDS011;20745;50.882;6.962;2023-03-24T06:17:01;6.88;;;1.92;;
34499;SDS011;20745;50.882;6.962;2023-03-24T06:19:28;8.65;;;1.75;;
34499;SDS011;20745;50.882;6.962;2023-03-24T06:21:56;9.07;;;1.80;;
34499;SDS011;20745;50.882;6.962;2023-03-24T06:26:52;11.82;;;1.98;;
34499;SDS011;20745;50.882;6.962;2023-03-24T06:29:24;13.02;;;2.00;;
34499;SDS011;20745;50.882;6.962;2023-03-24T06:31:50;9.10;;;2.10;;
34499;SDS011;20745;50.882;6.962;2023-03-24T06:34:17;6.68;;;1.55;;
34499;SDS011;20745;50.882;6.962;2023-03-24T06:36:43;10.35;;;2.58;;
34499;SDS011;20745;50.882;6.962;2023-03-24T06:39:10;13.98;;;2.00;;
34499;SDS011;20745;50.882;6.962;2023-03-24T06:41:36;10.38;;;2.08;;
34499;SDS011;20745;50.882;6.962;2023-03-24T06:44:03;12.45;;;1.90;;
34499;SDS011;20745;50.882;6.962;2023-03-24T06:46:29;11.95;;;2.00;;
34499;SDS011;20745;50.882;6.962;2023-03-24T06:48:56;12.55;;;2.10;;
34499;SDS011;20745;50.882;6.962;2023-03-24T06:51:22;14.65;;;2.67;;
34499;SDS011;20745;50.882;6.962;2023-03-24T06:53:49;14.48;;;2.08;;
34499;SDS011;20745;50.882;6.962;2023-03-24T06:56:16;12.10;;;2.03;;
34499;SDS011;20745;50.882;6.962;2023-03-24T06:58:45;13.65;;;1.95;;
34499;SDS011;20745;50.882;6.962;2023-03-24T07:01:12;11.05;;;2.25;;
34499;SDS011;20745;50.882;6.962;2023-03-24T07:03:40;10.20;;;2.13;;
34499;SDS011;20745;50.882;6.962;2023-03-24T07:06:08;15.77;;;2.72;;
34499;SDS011;20745;50.882;6.962;2023-03-24T07:08:35;13.15;;;2.47;;
34499;SDS011;20745;50.882;6.962;2023-03-24T07:13:32;12.95;;;2.50;;
34499;SDS011;20745;50.882;6.962;2023-03-24T07:15:58;15.57;;;2.55;;
34499;SDS011;20745;50.882;6.962;2023-03-24T07:18:25;13.85;;;2.72;;
34499;SDS011;20745;50.882;6.962;2023-03-24T07:20:51;14.95;;;3.10;;
34499;SDS011;20745;50.882;6.962;2023-03-24T07:23:18;13.00;;;2.63;;
34499;SDS011;20745;50.882;6.962;2023-03-24T07:25:44;17.05;;;3.00;;
34499;SDS011;20745;50.882;6.962;2023-03-24T07:28:11;18.17;;;3.20;;
34499;SDS011;20745;50.882;6.962;2023-03-24T07:30:37;15.15;;;2.85;;
34499;SDS011;20745;50.882;6.962;2023-03-24T07:33:06;18.10;;;4.03;;
34499;SDS011;20745;50.882;6.962;2023-03-24T07:35:35;19.58;;;3.00;;
34499;SDS011;20745;50.882;6.962;2023-03-24T07:38:02;14.38;;;3.08;;
34499;SDS011;20745;50.882;6.962;2023-03-24T07:40:29;14.02;;;2.92;;
34499;SDS011;20745;50.882;6.962;2023-03-24T07:42:58;18.50;;;3.55;;
34499;SDS011;20745;50.882;6.962;2023-03-24T07:45:25;16.80;;;4.20;;
34499;SDS011;20745;50.882;6.962;2023-03-24T07:47:53;14.82;;;3.08;;
34499;SDS011;20745;50.882;6.962;2023-03-24T07:52:49;17.75;;;3.53;;
34499;SDS011;20745;50.882;6.962;2023-03-24T07:55:16;15.00;;;2.92;;
34499;SDS011;20745;50.882;6.962;2023-03-24T07:57:44;12.63;;;3.38;;
34499;SDS011;20745;50.882;6.962;2023-03-24T08:00:12;15.23;;;3.90;;
34499;SDS011;20745;50.882;6.962;2023-03-24T08:02:43;16.13;;;3.72;;
34499;SDS011;20745;50.882;6.962;2023-03-24T08:05:12;11.98;;;3.17;;
34499;SDS011;20745;50.882;6.962;2023-03-24T08:07:40;16.42;;;3.65;;
34499;SDS011;20745;50.882;6.962;2023-03-24T08:10:09;19.20;;;4.38;;
34499;SDS011;20745;50.882;6.962;2023-03-24T08:12:40;22.65;;;4.40;;
34499;SDS011;20745;50.882;6.962;2023-03-24T08:15:07;16.17;;;3.50;;
34499;SDS011;20745;50.882;6.962;2023-03-24T08:17:37;16.67;;;3.92;;
34499;SDS011;20745;50.882;6.962;2023-03-24T08:20:04;21.27;;;4.38;;
34499;SDS011;20745;50.882;6.962;2023-03-24T08:22:33;15.20;;;3.67;;
34499;SDS011;20745;50.882;6.962;2023-03-24T08:25:00;16.58;;;4.25;;
34499;SDS011;20745;50.882;6.962;2023-03-24T08:27:26;16.58;;;3.17;;
34499;SDS011;20745;50.882;6.962;2023-03-24T08:29:53;15.43;;;3.42;;
34499;SDS011;20745;50.882;6.962;2023-03-24T08:32:19;18.30;;;3.83;;
34499;SDS011;20745;50.882;6.962;2023-03-24T08:34:46;13.77;;;2.70;;
34499;SDS011;20745;50.882;6.962;2023-03-24T08:37:12;19.80;;;3.78;;
34499;SDS011;20745;50.882;6.962;2023-03-24T08:39:39;14.05;;;3.13;;
34499;SDS011;20745;50.882;6.962;2023-03-24T08:42:05;13.98;;;3.15;;
34499;SDS011;20745;50.882;6.962;2023-03-24T08:44:32;15.93;;;3.58;;
34499;SDS011;20745;50.882;6.962;2023-03-24T08:47:02;15.02;;;3.10;;
34499;SDS011;20745;50.882;6.962;2023-03-24T08:49:28;14.35;;;2.58;;
34499;SDS011;20745;50.882;6.962;2023-03-24T08:51:55;11.85;;;3.35;;
34499;SDS011;20745;50.882;6.962;2023-03-24T08:54:22;14.82;;;2.40;;
34499;SDS011;20745;50.882;6.962;2023-03-24T08:56:51;18.17;;;2.90;;
34499;SDS011;20745;50.882;6.962;2023-03-24T08:59:17;17.38;;;2.60;;
34499;SDS011;20745;50.882;6.962;2023-03-24T09:01:44;13.32;;;2.65;;
34499;SDS011;20745;50.882;6.962;2023-03-24T09:04:10;18.58;;;3.03;;
34499;SDS011;20745;50.882;6.962;2023-03-24T09:06:37;17.90;;;3.13;;
34499;SDS011;20745;50.882;6.962;2023-03-24T09:09:03;16.73;;;2.67;;
34499;SDS011;20745;50.882;6.962;2023-03-24T09:11:30;16.92;;;2.55;;
34499;SDS011;20745;50.882;6.962;2023-03-24T09:13:57;13.40;;;2.67;;
34499;SDS011;20745;50.882;6.962;2023-03-24T09:16:23;18.10;;;2.90;;
34499;SDS011;20745;50.882;6.962;2023-03-24T09:18:50;17.60;;;3.60;;
34499;SDS011;20745;50.882;6.962;2023-03-24T09:21:16;20.75;;;2.67;;
34499;SDS011;20745;50.882;6.962;2023-03-24T09:23:43;15.25;;;3.28;;
34499;SDS011;20745;50.882;6.962;2023-03-24T09:26:09;16.52;;;2.83;;
34499;SDS011;20745;50.882;6.962;2023-03-24T09:28:36;13.85;;;2.70;;
34499;SDS011;20745;50.882;6.962;2023-03-24T09:31:04;14.43;;;2.58;;
34499;SDS011;20745;50.882;6.962;2023-03-24T09:33:31;14.52;;;2.40;;
34499;SDS011;20745;50.882;6.962;2023-03-24T09:36:00;11.35;;;2.35;;
34499;SDS011;20745;50.882;6.962;2023-03-24T09:38:27;15.32;;;2.55;;
34499;SDS011;20745;50.882;6.962;2023-03-24T09:40:55;15.20;;;2.67;;
34499;SDS011;20745;50.882;6.962;2023-03-24T09:45:57;17.38;;;3.00;;
34499;SDS011;20745;50.882;6.962;2023-03-24T09:51:21;19.60;;;3.13;;
34499;SDS011;20745;50.882;6.962;2023-03-24T09:56:38;13.77;;;2.70;;
34499;SDS011;20745;50.882;6.962;2023-03-24T09:59:16;16.08;;;2.70;;
34499;SDS011;20745;50.882;6.962;2023-03-24T10:01:43;17.95;;;2.65;;
34499;SDS011;20745;50.882;6.962;2023-03-24T10:04:14;15.88;;;2.90;;
34499;SDS011;20745;50.882;6.962;2023-03-24T10:06:44;16.30;;;2.45;;
34499;SDS011;20745;50.882;6.962;2023-03-24T10:14:23;15.32;;;2.45;;
34499;SDS011;20745;50.882;6.962;2023-03-24T10:17:28;12.45;;;2.33;;
34499;SDS011;20745;50.882;6.962;2023-03-24T10:25:24;15.48;;;2.60;;
34499;SDS011;20745;50.882;6.962;2023-03-24T10:27:59;18.85;;;2.65;;
34499;SDS011;20745;50.882;6.962;2023-03-24T10:30:32;13.75;;;2.40;;
34499;SDS011;20745;50.882;6.962;2023-03-24T10:33:02;20.10;;;2.95;;
34499;SDS011;20745;50.882;6.962;2023-03-24T10:36:11;12.05;;;2.10;;
34499;SDS011;20745;50.882;6.962;2023-03-24T10:38:51;14.52;;;2.42;;
34499;SDS011;20745;50.882;6.962;2023-03-24T10:41:21;16.20;;;2.60;;
34499;SDS011;20745;50.882;6.962;2023-03-24T10:43:51;10.05;;;2.03;;
34499;SDS011;20745;50.882;6.962;2023-03-24T10:46:20;11.50;;;1.83;;
34499;SDS011;20745;50.882;6.962;2023-03-24T10:49:13;14.15;;;2.20;;
34499;SDS011;20745;50.882;6.962;2023-03-24T10:51:45;14.27;;;2.40;;
34499;SDS011;20745;50.882;6.962;2023-03-24T10:54:16;18.00;;;2.20;;
34499;SDS011;20745;50.882;6.962;2023-03-24T10:56:47;15.30;;;2.00;;
34499;SDS011;20745;50.882;6.962;2023-03-24T11:02:28;17.27;;;2.50;;
34499;SDS011;20745;50.882;6.962;2023-03-24T11:05:00;13.15;;;1.83;;
34499;SDS011;20745;50.882;6.962;2023-03-24T11:07:38;9.35;;;2.13;;
34499;SDS011;20745;50.882;6.962;2023-03-24T11:12:41;11.95;;;2.20;;
34499;SDS011;20745;50.882;6.962;2023-03-24T11:17:56;11.55;;;1.85;;
34499;SDS011;20745;50.882;6.962;2023-03-24T11:20:29;14.15;;;2.75;;
34499;SDS011;20745;50.882;6.962;2023-03-24T11:23:01;10.43;;;1.92;;
34499;SDS011;20745;50.882;6.962;2023-03-24T11:25:31;12.32;;;1.60;;
34499;SDS011;20745;50.882;6.962;2023-03-24T11:28:04;15.65;;;2.38;;
34499;SDS011;20745;50.882;6.962;2023-03-24T11:30:44;8.93;;;1.75;;
34499;SDS011;20745;50.882;6.962;2023-03-24T11:33:22;14.43;;;2.13;;
34499;SDS011;20745;50.882;6.962;2023-03-24T11:36:04;14.10;;;2.20;;
34499;SDS011;20745;50.882;6.962;2023-03-24T11:38:59;11.27;;;2.33;;
34499;SDS011;20745;50.882;6.962;2023-03-24T11:41:37;12.52;;;2.00;;
34499;SDS011;20745;50.882;6.962;2023-03-24T11:44:15;16.00;;;2.03;;
34499;SDS011;20745;50.882;6.962;2023-03-24T11:46:51;13.82;;;1.75;;
34499;SDS011;20745;50.882;6.962;2023-03-24T11:49:24;12.10;;;2.10;;
34499;SDS011;20745;50.882;6.962;2023-03-24T11:51:55;13.18;;;1.70;;
34499;SDS011;20745;50.882;6.962;2023-03-24T11:54:43;9.68;;;1.85;;
34499;SDS011;20745;50.882;6.962;2023-03-24T11:57:10;12.50;;;1.88;;
34499;SDS011;20745;50.882;6.962;2023-03-24T12:10:24;8.82;;;1.40;;
34499;SDS011;20745;50.882;6.962;2023-03-24T12:13:08;11.30;;;1.92;;
34499;SDS011;20745;50.882;6.962;2023-03-24T12:18:54;9.85;;;1.92;;
34499;SDS011;20745;50.882;6.962;2023-03-24T12:21:39;9.45;;;1.63;;
34499;SDS011;20745;50.882;6.962;2023-03-24T12:27:24;15.48;;;1.90;;
34499;SDS011;20745;50.882;6.962;2023-03-24T12:43:58;14.35;;;2.25;;
34499;SDS011;20745;50.882;6.962;2023-03-24T12:57:45;13.93;;;1.92;;
34499;SDS011;20745;50.882;6.962;2023-03-24T13:00:20;15.80;;;2.15;;
34499;SDS011;20745;50.882;6.962;2023-03-24T13:02:55;14.32;;;2.35;;
34499;SDS011;20745;50.882;6.962;2023-03-24T13:05:28;13.93;;;1.85;;
34499;SDS011;20745;50.882;6.962;2023-03-24T13:08:04;11.35;;;1.80;;
34499;SDS011;20745;50.882;6.962;2023-03-24T13:10:38;12.32;;;2.15;;
34499;SDS011;20745;50.882;6.962;2023-03-24T13:13:18;8.75;;;1.63;;
34499;SDS011;20745;50.882;6.962;2023-03-24T13:18:28;10.27;;;1.90;;
34499;SDS011;20745;50.882;6.962;2023-03-24T13:20:59;12.02;;;1.92;;
34499;SDS011;20745;50.882;6.962;2023-03-24T13:23:33;12.82;;;2.00;;
34499;SDS011;20745;50.882;6.962;2023-03-24T13:32:24;5.00;;;1.45;;
34499;SDS011;20745;50.882;6.962;2023-03-24T13:35:16;9.00;;;1.23;;
34499;SDS011;20745;50.882;6.962;2023-03-24T13:37:49;11.05;;;2.00;;
34499;SDS011;20745;50.882;6.962;2023-03-24T13:40:20;11.07;;;1.60;;
34499;SDS011;20745;50.882;6.962;2023-03-24T13:42:55;9.48;;;1.88;;
34499;SDS011;20745;50.882;6.962;2023-03-24T13:48:22;7.20;;;1.30;;
34499;SDS011;20745;50.882;6.962;2023-03-24T13:50:57;10.55;;;1.70;;
34499;SDS011;20745;50.882;6.962;2023-03-24T13:53:34;8.57;;;1.63;;
34499;SDS011;20745;50.882;6.962;2023-03-24T13:56:08;7.80;;;1.30;;
34499;SDS011;20745;50.882;6.962;2023-03-24T13:58:47;11.57;;;1.40;;
34499;SDS011;20745;50.882;6.962;2023-03-24T14:12:51;10.50;;;1.55;;
34499;SDS011;20745;50.882;6.962;2023-03-24T14:15:58;6.95;;;1.17;;
34499;SDS011;20745;50.882;6.962;2023-03-24T14:26:12;9.18;;;1.63;;
34499;SDS011;20745;50.882;6.962;2023-03-24T14:28:41;9.95;;;1.63;;
34499;SDS011;20745;50.882;6.962;2023-03-24T14:33:42;10.18;;;1.90;;
34499;SDS011;20745;50.882;6.962;2023-03-24T14:36:30;16.38;;;2.47;;
34499;SDS011;20745;50.882;6.962;2023-03-24T14:39:07;11.07;;;1.70;;
34499;SDS011;20745;50.882;6.962;2023-03-24T14:41:38;10.27;;;1.75;;
34499;SDS011;20745;50.882;6.962;2023-03-24T14:44:07;11.20;;;1.80;;
34499;SDS011;20745;50.882;6.962;2023-03-24T14:49:19;10.45;;;1.60;;
34499;SDS011;20745;50.882;6.962;2023-03-24T14:51:56;9.75;;;1.60;;
34499;SDS011;20745;50.882;6.962;2023-03-24T14:54:39;9.95;;;2.20;;
34499;SDS011;20745;50.882;6.962;2023-03-24T14:57:16;7.82;;;1.77;;
34499;SDS011;20745;50.882;6.962;2023-03-24T15:06:14;9.90;;;1.45;;
34499;SDS011;20745;50.882;6.962;2023-03-24T15:08:43;6.80;;;1.35;;
34499;SDS011;20745;50.882;6.962;2023-03-24T15:11:12;8.70;;;1.35;;
34499;SDS011;20745;50.882;6.962;2023-03-24T15:13:42;8.95;;;1.10;;
34499;SDS011;20745;50.882;6.962;2023-03-24T15:18:53;9.02;;;1.45;;
34499;SDS011;20745;50.882;6.962;2023-03-24T15:21:46;4.13;;;1.05;;
34499;SDS011;20745;50.882;6.962;2023-03-24T15:26:53;8.77;;;1.42;;
34499;SDS011;20745;50.882;6.962;2023-03-24T15:29:32;7.35;;;1.55;;
34499;SDS011;20745;50.882;6.962;2023-03-24T15:32:00;6.40;;;1.40;;
34499;SDS011;20745;50.882;6.962;2023-03-24T15:34:28;10.63;;;1.50;;
34499;SDS011;20745;50.882;6.962;2023-03-24T15:37:18;9.77;;;1.50;;
34499;SDS011;20745;50.882;6.962;2023-03-24T15:42:53;8.85;;;1.58;;
34499;SDS011;20745;50.882;6.962;2023-03-24T15:45:29;7.03;;;1.50;;
34499;SDS011;20745;50.882;6.962;2023-03-24T15:48:06;7.95;;;1.42;;
34499;SDS011;20745;50.882;6.962;2023-03-24T15:50:38;7.30;;;1.70;;
34499;SDS011;20745;50.882;6.962;2023-03-24T15:55:40;6.63;;;1.23;;
34499;SDS011;20745;50.882;6.962;2023-03-24T16:00:57;7.60;;;1.45;;
34499;SDS011;20745;50.882;6.962;2023-03-24T16:03:25;11.13;;;1.48;;
34499;SDS011;20745;50.882;6.962;2023-03-24T16:05:53;10.55;;;1.40;;
34499;SDS011;20745;50.882;6.962;2023-03-24T16:08:30;8.70;;;1.23;;
34499;SDS011;20745;50.882;6.962;2023-03-24T16:11:02;10.35;;;1.20;;
34499;SDS011;20745;50.882;6.962;2023-03-24T16:13:32;11.07;;;1.52;;
34499;SDS011;20745;50.882;6.962;2023-03-24T16:16:00;9.38;;;1.88;;
34499;SDS011;20745;50.882;6.962;2023-03-24T16:18:45;8.40;;;1.58;;
34499;SDS011;20745;50.882;6.962;2023-03-24T16:23:44;9.48;;;1.20;;
34499;SDS011;20745;50.882;6.962;2023-03-24T16:26:19;6.22;;;1.02;;
34499;SDS011;20745;50.882;6.962;2023-03-24T16:28:50;9.35;;;1.17;;
34499;SDS011;20745;50.882;6.962;2023-03-24T16:33:58;6.28;;;1.15;;
34499;SDS011;20745;50.882;6.962;2023-03-24T16:36:25;6.32;;;1.17;;
34499;SDS011;20745;50.882;6.962;2023-03-24T16:38:53;9.70;;;1.17;;
34499;SDS011;20745;50.882;6.962;2023-03-24T16:41:21;4.22;;;0.80;;
34499;SDS011;20745;50.882;6.962;2023-03-24T16:43:47;7.40;;;1.25;;
34499;SDS011;20745;50.882;6.962;2023-03-24T16:46:15;6.28;;;1.33;;
34499;SDS011;20745;50.882;6.962;2023-03-24T16:48:46;8.93;;;1.52;;
34499;SDS011;20745;50.882;6.962;2023-03-24T16:51:13;11.45;;;1.58;;
34499;SDS011;20745;50.882;6.962;2023-03-24T16:53:41;10.77;;;1.48;;
34499;SDS011;20745;50.882;6.962;2023-03-24T16:56:09;9.10;;;1.63;;
34499;SDS011;20745;50.882;6.962;2023-03-24T16:58:38;9.38;;;1.30;;
34499;SDS011;20745;50.882;6.962;2023-03-24T17:01:13;6.15;;;1.25;;
34499;SDS011;20745;50.882;6.962;2023-03-24T17:03:52;5.13;;;1.25;;
34499;SDS011;20745;50.882;6.962;2023-03-24T17:06:20;7.03;;;1.27;;
34499;SDS011;20745;50.882;6.962;2023-03-24T17:08:47;9.45;;;1.45;;
34499;SDS011;20745;50.882;6.962;2023-03-24T17:11:19;6.80;;;1.00;;
34499;SDS011;20745;50.882;6.962;2023-03-24T17:13:52;6.82;;;1.13;;
34499;SDS011;20745;50.882;6.962;2023-03-24T17:16:19;8.05;;;1.58;;
34499;SDS011;20745;50.882;6.962;2023-03-24T17:18:45;5.75;;;1.30;;
34499;SDS011;20745;50.882;6.962;2023-03-24T17:21:12;7.72;;;1.40;;
34499;SDS011;20745;50.882;6.962;2023-03-24T17:23:42;12.10;;;1.52;;
34499;SDS011;20745;50.882;6.962;2023-03-24T17:26:12;6.13;;;1.20;;
34499;SDS011;20745;50.882;6.962;2023-03-24T17:28:38;8.25;;;1.75;;
34499;SDS011;20745;50.882;6.962;2023-03-24T17:31:05;6.47;;;1.42;;
34499;SDS011;20745;50.882;6.962;2023-03-24T17:33:31;6.35;;;1.20;;
34499;SDS011;20745;50.882;6.962;2023-03-24T17:35:58;4.72;;;1.48;;
34499;SDS011;20745;50.882;6.962;2023-03-24T17:38:25;5.53;;;1.33;;
34499;SDS011;20745;50.882;6.962;2023-03-24T17:40:59;6.65;;;1.45;;
34499;SDS011;20745;50.882;6.962;2023-03-24T17:43:26;4.82;;;1.33;;
34499;SDS011;20745;50.882;6.962;2023-03-24T17:45:55;7.28;;;1.25;;
34499;SDS011;20745;50.882;6.962;2023-03-24T17:48:25;8.57;;;1.90;;
34499;SDS011;20745;50.882;6.962;2023-03-24T17:50:52;12.43;;;2.75;;
34499;SDS011;20745;50.882;6.962;2023-03-24T17:53:21;8.65;;;2.25;;
34499;SDS011;20745;50.882;6.962;2023-03-24T17:55:55;10.38;;;2.47;;
34499;SDS011;20745;50.882;6.962;2023-03-24T17:58:23;8.20;;;2.10;;
34499;SDS011;20745;50.882;6.962;2023-03-24T18:00:52;13.27;;;2.53;;
34499;SDS011;20745;50.882;6.962;2023-03-24T18:03:19;59.28;;;22.75;;
34499;SDS011;20745;50.882;6.962;2023-03-24T18:05:46;27.98;;;9.43;;